createdAt,value
2018-03-27T00:00:51.950Z,82.62
2018-03-27T00:03:20.639Z,82.97
2018-03-27T00:05:48.880Z,83.24
2018-03-27T00:08:17.243Z,83.32
2018-03-27T00:10:45.471Z,83.29
2018-03-27T00:13:13.693Z,83.52
2018-03-27T00:15:41.953Z,83.67
2018-03-27T00:18:10.148Z,83.73
2018-03-27T00:20:38.401Z,83.66
2018-03-27T00:23:06.621Z,83.80
2018-03-27T00:25:34.848Z,83.74
2018-03-27T00:28:14.612Z,83.98
2018-03-27T00:30:54.700Z,84.25
2018-03-27T00:33:34.406Z,84.54
2018-03-27T00:36:14.220Z,84.55
2018-03-27T00:38:54.110Z,84.43
2018-03-27T00:55:23.780Z,85.29
2018-03-27T00:57:52.211Z,85.09
2018-03-27T01:00:22.334Z,85.17
2018-03-27T01:02:52.380Z,85.25
2018-03-27T01:05:22.549Z,85.33
2018-03-27T01:07:52.607Z,85.19
2018-03-27T01:10:26.875Z,85.48
2018-03-27T01:12:55.332Z,85.24
2018-03-27T01:15:24.875Z,85.40
2018-03-27T01:17:53.228Z,85.55
2018-03-27T01:20:23.257Z,85.72
2018-03-27T01:22:51.656Z,85.95
2018-03-27T01:25:20.103Z,85.94
2018-03-27T01:27:48.429Z,85.77
2018-03-27T01:30:16.774Z,85.88
2018-03-27T01:32:46.180Z,85.98
2018-03-27T01:35:14.639Z,86.07
2018-03-27T01:37:42.963Z,86.07
2018-03-27T01:40:11.291Z,86.01
2018-03-27T01:42:39.652Z,86.01
2018-03-27T01:45:09.007Z,86.10
2018-03-27T01:47:39.959Z,86.36
2018-03-27T01:50:11.229Z,86.60
2018-03-27T01:52:39.563Z,86.73
2018-03-27T01:55:07.910Z,86.76
2018-03-27T01:57:38.007Z,86.98
2018-03-27T02:00:06.405Z,86.95
2018-03-27T02:02:34.723Z,87.13
2018-03-27T02:05:03.080Z,87.03
2018-03-27T02:07:33.022Z,87.23
2018-03-27T02:10:01.396Z,87.17
2018-03-27T02:12:35.909Z,87.33
2018-03-27T02:15:11.337Z,87.23
2018-03-27T02:17:46.852Z,87.17
2018-03-27T02:20:21.408Z,87.27
2018-03-27T02:23:00.640Z,87.25
2018-03-27T02:25:29.177Z,87.24
2018-03-27T02:27:57.965Z,87.17
2018-03-27T02:30:28.119Z,87.23
2018-03-27T02:32:57.327Z,87.26
2018-03-27T02:35:25.687Z,87.28
2018-03-27T02:37:56.843Z,87.52
2018-03-27T02:40:25.187Z,87.44
2018-03-27T02:42:53.521Z,87.46
2018-03-27T02:45:21.958Z,87.40
2018-03-27T02:47:50.348Z,87.45
2018-03-27T02:50:21.316Z,87.43
2018-03-27T02:52:49.703Z,87.40
2018-03-27T02:55:19.099Z,87.33
2018-03-27T02:57:47.413Z,87.38
2018-03-27T03:00:16.465Z,87.63
2018-03-27T03:02:44.959Z,87.84
2018-03-27T03:05:13.345Z,87.88
2018-03-27T03:07:44.331Z,87.85
2018-03-27T03:10:12.794Z,87.92
2018-03-27T03:12:41.177Z,87.91
2018-03-27T03:15:09.620Z,87.78
2018-03-27T03:17:37.926Z,87.99
2018-03-27T03:20:06.435Z,87.83
2018-03-27T03:22:36.589Z,87.91
2018-03-27T03:25:05.643Z,87.68
2018-03-27T03:27:34.068Z,87.88
2018-03-27T03:30:02.443Z,87.69
2018-03-27T03:32:30.758Z,87.64
2018-03-27T03:34:59.073Z,87.75
2018-03-27T03:37:27.455Z,87.90
2018-03-27T03:39:55.843Z,87.93
2018-03-27T03:42:24.525Z,88.01
2018-03-27T03:44:52.873Z,88.25
2018-03-27T03:47:21.185Z,88.22
2018-03-27T03:49:51.524Z,88.22
2018-03-27T03:52:23.057Z,88.07
2018-03-27T03:54:51.392Z,87.91
2018-03-27T03:57:19.708Z,87.91
2018-03-27T03:59:48.923Z,87.93
2018-03-27T04:02:17.350Z,87.93
2018-03-27T04:04:46.413Z,87.87
2018-03-27T04:07:14.773Z,87.91
2018-03-27T04:09:45.815Z,87.76
2018-03-27T04:12:16.401Z,87.65
2018-03-27T04:14:47.053Z,87.55
2018-03-27T04:17:15.545Z,87.74
2018-03-27T04:19:43.918Z,87.67
2018-03-27T04:22:12.292Z,87.65
2018-03-27T04:24:43.444Z,87.68
2018-03-27T04:27:11.859Z,87.50
2018-03-27T04:29:41.073Z,87.54
2018-03-27T04:32:12.031Z,87.82
2018-03-27T04:34:43.475Z,87.82
2018-03-27T04:37:11.821Z,87.94
2018-03-27T04:39:40.482Z,88.26
2018-03-27T04:42:08.843Z,88.33
2018-03-27T04:44:37.449Z,88.44
2018-03-27T04:47:08.135Z,88.60
2018-03-27T04:49:38.055Z,88.87
2018-03-27T04:52:07.256Z,89.00
2018-03-27T04:54:37.406Z,89.13
2018-03-27T04:57:06.180Z,89.33
2018-03-27T04:59:34.655Z,89.69
2018-03-27T05:02:03.028Z,90.15
2018-03-27T05:04:31.391Z,90.31
2018-03-27T05:06:59.811Z,90.55
2018-03-27T05:09:31.288Z,90.54
2018-03-27T05:11:59.637Z,90.90
2018-03-27T05:14:28.726Z,91.23
2018-03-27T05:16:57.034Z,90.86
2018-03-27T05:19:26.195Z,90.62
2018-03-27T05:21:54.520Z,90.68
2018-03-27T05:24:23.346Z,90.72
2018-03-27T05:26:52.589Z,90.54
2018-03-27T05:29:24.710Z,90.90
2018-03-27T05:31:53.149Z,91.12
2018-03-27T05:34:21.463Z,91.30
2018-03-27T05:36:53.347Z,91.44
2018-03-27T05:39:22.218Z,91.39
2018-03-27T05:41:55.779Z,91.83
2018-03-27T05:44:25.727Z,91.76
2018-03-27T05:46:55.372Z,92.07
2018-03-27T05:49:23.697Z,92.57
2018-03-27T05:51:52.012Z,92.81
2018-03-27T05:54:22.107Z,92.98
2018-03-27T05:56:52.002Z,92.75
2018-03-27T05:59:21.091Z,92.79
2018-03-27T06:01:49.565Z,92.91
2018-03-27T06:04:17.929Z,93.04
2018-03-27T06:06:46.313Z,92.79
2018-03-27T06:09:16.300Z,92.88
2018-03-27T06:11:45.457Z,92.93
2018-03-27T06:14:15.755Z,93.16
2018-03-27T06:16:46.794Z,93.40
2018-03-27T06:19:15.182Z,93.52
2018-03-27T06:21:43.852Z,93.52
2018-03-27T06:24:12.318Z,93.46
2018-03-27T06:26:42.357Z,93.46
2018-03-27T06:29:11.024Z,93.29
2018-03-27T06:31:39.353Z,93.33
2018-03-27T06:34:09.932Z,93.09
2018-03-27T06:36:42.099Z,93.19
2018-03-27T06:39:10.524Z,93.23
2018-03-27T06:41:41.249Z,93.38
2018-03-27T06:44:10.598Z,93.46
2018-03-27T06:46:40.822Z,93.22
2018-03-27T06:49:11.673Z,93.34
2018-03-27T06:51:41.888Z,93.46
2018-03-27T06:54:11.022Z,93.51
2018-03-27T06:56:41.120Z,93.37
2018-03-27T06:59:09.540Z,93.47
2018-03-27T07:01:37.888Z,93.49
2018-03-27T07:04:08.936Z,93.31
2018-03-27T07:06:40.054Z,93.19
2018-03-27T07:09:09.156Z,93.31
2018-03-27T07:11:37.650Z,93.53
2018-03-27T07:14:05.995Z,93.35
2018-03-27T07:16:34.436Z,93.21
2018-03-27T07:19:04.582Z,93.25
2018-03-27T07:21:35.515Z,93.28
2018-03-27T07:24:03.944Z,93.21
2018-03-27T07:26:32.288Z,93.17
2018-03-27T07:29:00.718Z,93.26
2018-03-27T07:31:29.119Z,93.29
2018-03-27T07:33:59.220Z,93.03
2018-03-27T07:36:27.674Z,92.96
2018-03-27T07:38:56.026Z,92.99
2018-03-27T07:41:26.277Z,92.51
2018-03-27T07:43:59.813Z,92.34
2018-03-27T07:46:29.424Z,92.41
2018-03-27T07:48:59.750Z,92.18
2018-03-27T07:51:30.453Z,92.20
2018-03-27T07:53:58.965Z,92.08
2018-03-27T07:56:27.409Z,91.98
2018-03-27T07:58:59.661Z,91.48
2018-03-27T08:01:28.110Z,91.78
2018-03-27T08:03:56.520Z,90.90
2018-03-27T08:06:26.579Z,89.95
2018-03-27T08:08:55.066Z,90.11
2018-03-27T08:11:24.253Z,89.87
2018-03-27T08:13:52.742Z,89.50
2018-03-27T08:16:21.073Z,89.05
2018-03-27T08:18:51.226Z,87.52
2018-03-27T08:21:21.216Z,88.24
2018-03-27T08:23:52.680Z,87.52
2018-03-27T08:26:21.035Z,87.02
2018-03-27T08:28:49.376Z,87.51
2018-03-27T08:31:17.868Z,87.75
2018-03-27T08:33:46.286Z,86.71
2018-03-27T08:36:16.472Z,86.75
2018-03-27T08:38:44.752Z,85.94
2018-03-27T08:41:14.739Z,85.80
2018-03-27T08:43:43.316Z,85.32
2018-03-27T08:46:14.329Z,85.44
2018-03-27T08:48:42.934Z,84.44
2018-03-27T08:51:11.278Z,85.29
2018-03-27T08:53:39.686Z,85.95
2018-03-27T08:56:08.204Z,85.21
2018-03-27T08:58:36.634Z,83.61
2018-03-27T09:01:06.696Z,82.01
2018-03-27T09:03:35.330Z,81.89
2018-03-27T09:06:03.694Z,82.50
2018-03-27T09:08:33.035Z,82.99
2018-03-27T09:11:01.642Z,82.71
2018-03-27T09:13:29.968Z,82.81
2018-03-27T09:16:02.410Z,82.88
2018-03-27T09:18:33.422Z,81.93
2018-03-27T09:21:01.842Z,81.72
2018-03-27T09:23:31.933Z,81.18
2018-03-27T09:26:04.195Z,78.69
2018-03-27T09:28:32.789Z,77.40
2018-03-27T09:31:01.235Z,77.43
2018-03-27T09:33:29.984Z,77.60
2018-03-27T09:36:01.147Z,77.32
2018-03-27T09:38:30.621Z,78.03
2018-03-27T09:41:00.782Z,78.03
2018-03-27T09:43:33.105Z,76.67
2018-03-27T09:46:02.521Z,77.39
2018-03-27T09:48:34.693Z,75.36
2018-03-27T09:51:03.083Z,75.77
2018-03-27T09:53:32.259Z,76.57
2018-03-27T09:56:00.871Z,73.60
2018-03-27T09:58:29.228Z,73.82
2018-03-27T10:00:57.586Z,73.38
2018-03-27T10:03:25.925Z,73.35
2018-03-27T10:05:55.002Z,70.63
2018-03-27T10:08:23.354Z,69.30
2018-03-27T10:10:53.458Z,69.68
2018-03-27T10:13:23.586Z,70.01
2018-03-27T10:15:51.993Z,70.44
2018-03-27T10:18:20.450Z,68.51
2018-03-27T10:20:48.821Z,68.96
2018-03-27T10:23:18.957Z,69.05
2018-03-27T10:25:47.395Z,67.98
2018-03-27T10:28:16.003Z,68.12
2018-03-27T10:30:44.389Z,69.89
2018-03-27T10:33:14.556Z,66.45
2018-03-27T10:35:44.526Z,67.92
2018-03-27T10:38:12.910Z,67.25
2018-03-27T10:40:41.274Z,68.14
2018-03-27T10:43:09.722Z,69.42
2018-03-27T10:45:38.046Z,64.58
2018-03-27T10:48:06.420Z,64.96
2018-03-27T10:50:34.767Z,64.57
2018-03-27T10:53:03.144Z,65.04
2018-03-27T10:55:33.195Z,64.53
2018-03-27T10:58:01.574Z,63.85
2018-03-27T11:00:29.913Z,62.16
2018-03-27T11:02:58.293Z,63.29
2018-03-27T11:05:26.637Z,63.78
2018-03-27T11:07:54.995Z,63.17
2018-03-27T11:10:23.722Z,62.42
2018-03-27T11:12:52.132Z,62.86
2018-03-27T11:15:21.264Z,61.81
2018-03-27T11:17:51.429Z,62.23
2018-03-27T11:20:19.839Z,63.74
2018-03-27T11:22:48.168Z,61.54
2018-03-27T11:25:18.096Z,60.75
2018-03-27T11:27:47.846Z,61.89
2018-03-27T11:30:16.235Z,58.24
2018-03-27T11:32:45.044Z,59.13
2018-03-27T11:35:14.217Z,62.11
2018-03-27T11:37:42.798Z,60.89
2018-03-27T11:40:13.271Z,60.85
2018-03-27T11:42:46.856Z,59.59
2018-03-27T11:45:15.333Z,58.13
2018-03-27T11:47:43.694Z,56.50
2018-03-27T11:50:14.346Z,59.60
2018-03-27T11:52:45.013Z,59.34
2018-03-27T11:55:13.566Z,60.91
2018-03-27T11:57:43.936Z,59.92
2018-03-27T12:00:13.492Z,60.69
2018-03-27T12:02:42.742Z,57.81
2018-03-27T12:05:12.263Z,58.23
2018-03-27T12:07:41.872Z,55.39
2018-03-27T12:10:15.109Z,57.54
2018-03-27T12:12:43.518Z,58.19
2018-03-27T12:15:12.025Z,56.49
2018-03-27T12:17:40.586Z,54.87
2018-03-27T12:20:09.710Z,55.35
2018-03-27T12:22:38.083Z,53.01
2018-03-27T12:25:08.197Z,53.40
2018-03-27T12:27:36.542Z,56.07
2018-03-27T12:30:05.743Z,55.86
2018-03-27T12:32:34.160Z,56.31
2018-03-27T12:35:02.504Z,56.33
2018-03-27T12:37:31.555Z,56.53
2018-03-27T12:40:00.008Z,56.21
2018-03-27T12:42:29.626Z,56.94
2018-03-27T12:44:59.840Z,55.58
2018-03-27T12:47:30.516Z,57.23
2018-03-27T12:49:58.964Z,56.06
2018-03-27T12:52:29.417Z,53.92
2018-03-27T12:55:00.216Z,54.89
2018-03-27T12:57:30.240Z,55.48
2018-03-27T12:59:59.476Z,53.82
2018-03-27T13:02:27.930Z,55.29
2018-03-27T13:04:57.944Z,55.93
2018-03-27T13:07:29.319Z,54.08
2018-03-27T13:09:59.586Z,55.15
2018-03-27T13:12:28.332Z,53.06
2018-03-27T13:14:56.709Z,51.43
2018-03-27T13:17:25.273Z,51.20
2018-03-27T13:19:56.632Z,52.51
2018-03-27T13:22:25.050Z,57.61
2018-03-27T13:24:53.571Z,57.27
2018-03-27T13:27:22.135Z,57.63
2018-03-27T13:29:51.744Z,58.98
2018-03-27T13:32:20.293Z,59.36
2018-03-27T13:34:50.357Z,61.23
2018-03-27T13:37:18.734Z,59.81
2018-03-27T13:39:47.212Z,60.99
2018-03-27T13:42:16.742Z,61.08
2018-03-27T13:44:45.978Z,58.82
2018-03-27T13:47:16.106Z,60.13
2018-03-27T13:49:45.335Z,59.16
2018-03-27T13:52:14.458Z,58.30
2018-03-27T13:54:42.882Z,59.01
2018-03-27T13:57:11.342Z,58.14
2018-03-27T13:59:39.678Z,58.89
2018-03-27T14:02:08.072Z,59.39
2018-03-27T14:04:36.556Z,59.19
2018-03-27T14:07:05.060Z,58.74
2018-03-27T14:09:36.228Z,59.06
2018-03-27T14:12:05.468Z,58.19
2018-03-27T14:14:36.831Z,58.96
2018-03-27T14:17:05.204Z,58.71
2018-03-27T14:19:36.353Z,58.75
2018-03-27T14:22:04.725Z,56.95
2018-03-27T14:24:33.113Z,56.73
2018-03-27T14:27:01.519Z,56.64
2018-03-27T14:29:31.521Z,56.53
2018-03-27T14:31:59.920Z,57.52
2018-03-27T14:34:29.062Z,57.10
2018-03-27T14:36:59.646Z,59.39
2018-03-27T14:39:28.053Z,60.00
2018-03-27T14:41:56.342Z,59.95
2018-03-27T14:44:28.254Z,60.80
2018-03-27T14:46:56.628Z,60.05
2018-03-27T14:49:25.121Z,60.00
2018-03-27T14:51:53.468Z,59.64
2018-03-27T14:54:21.842Z,59.60
2018-03-27T14:56:50.222Z,59.09
2018-03-27T14:59:18.673Z,57.18
2018-03-27T15:01:47.044Z,56.15
2018-03-27T15:04:15.445Z,54.10
2018-03-27T15:06:43.830Z,53.63
2018-03-27T15:09:12.896Z,53.79
2018-03-27T15:11:41.298Z,52.11
2018-03-27T15:14:09.700Z,51.31
2018-03-27T15:16:39.953Z,51.17
2018-03-27T15:19:11.129Z,51.35
2018-03-27T15:21:39.848Z,50.47
2018-03-27T15:24:08.130Z,50.90
2018-03-27T15:26:37.472Z,51.44
2018-03-27T15:29:05.810Z,49.66
2018-03-27T15:31:34.987Z,47.94
2018-03-27T15:34:03.319Z,45.77
2018-03-27T15:36:31.659Z,46.39
2018-03-27T15:39:01.985Z,45.13
2018-03-27T15:41:30.403Z,47.43
2018-03-27T15:43:58.730Z,47.09
2018-03-27T15:46:27.282Z,46.46
2018-03-27T15:48:55.713Z,48.48
2018-03-27T15:51:25.866Z,48.73
2018-03-27T15:53:54.327Z,48.35
2018-03-27T15:56:22.726Z,48.56
2018-03-27T15:58:51.061Z,47.95
2018-03-27T16:01:21.143Z,49.13
2018-03-27T16:03:49.542Z,48.29
2018-03-27T16:06:17.902Z,49.19
2018-03-27T16:08:46.296Z,50.12
2018-03-27T16:11:14.676Z,49.21
2018-03-27T16:13:44.728Z,50.13
2018-03-27T16:16:13.086Z,50.03
2018-03-27T16:18:41.466Z,49.12
2018-03-27T16:21:10.015Z,51.11
2018-03-27T16:23:39.498Z,50.16
2018-03-27T16:26:09.582Z,51.15
2018-03-27T16:28:39.891Z,51.19
2018-03-27T16:31:10.752Z,51.42
2018-03-27T16:33:41.954Z,51.77
2018-03-27T16:36:12.938Z,51.41
2018-03-27T16:38:41.280Z,50.39
2018-03-27T16:41:11.430Z,51.85
2018-03-27T16:43:39.897Z,52.14
2018-03-27T16:46:10.715Z,52.36
2018-03-27T16:48:39.090Z,53.11
2018-03-27T16:51:07.428Z,56.31
2018-03-27T16:53:35.870Z,59.40
2018-03-27T16:56:07.095Z,60.72
2018-03-27T16:58:38.129Z,61.96
2018-03-27T17:01:07.613Z,62.61
2018-03-27T17:03:37.071Z,63.37
2018-03-27T17:06:07.118Z,63.28
2018-03-27T17:08:35.608Z,64.54
2018-03-27T17:11:04.891Z,65.32
2018-03-27T17:13:33.362Z,65.99
2018-03-27T17:16:03.666Z,67.53
2018-03-27T17:18:34.638Z,68.06
2018-03-27T17:21:03.110Z,68.64
2018-03-27T17:23:31.490Z,68.80
2018-03-27T17:26:00.583Z,68.97
2018-03-27T17:28:30.846Z,68.90
2018-03-27T17:31:01.806Z,69.04
2018-03-27T17:33:30.298Z,69.53
2018-03-27T17:36:00.308Z,69.93
2018-03-27T17:38:30.666Z,70.33
2018-03-27T17:41:02.595Z,70.72
2018-03-27T17:43:32.553Z,70.78
2018-03-27T17:46:00.995Z,70.92
2018-03-27T17:48:30.586Z,71.26
2018-03-27T17:51:01.106Z,71.22
2018-03-27T17:53:29.657Z,71.63
2018-03-27T17:55:58.076Z,71.79
2018-03-27T17:58:26.348Z,71.84
2018-03-27T18:00:54.777Z,72.25
2018-03-27T18:03:23.432Z,72.37
2018-03-27T18:05:53.729Z,72.72
2018-03-27T18:08:24.808Z,72.66
2018-03-27T18:10:56.440Z,73.03
2018-03-27T18:13:25.287Z,73.23
2018-03-27T18:15:55.455Z,73.83
2018-03-27T18:18:25.568Z,73.96
2018-03-27T18:20:53.983Z,74.21
2018-03-27T18:23:22.499Z,74.46
2018-03-27T18:25:50.831Z,74.52
2018-03-27T18:28:19.255Z,74.73
2018-03-27T18:30:47.793Z,75.21
2018-03-27T18:33:16.210Z,75.36
2018-03-27T18:35:44.594Z,75.51
2018-03-27T18:38:15.080Z,75.67
2018-03-27T18:40:47.637Z,75.66
2018-03-27T18:43:17.780Z,75.92
2018-03-27T18:45:46.216Z,76.07
2018-03-27T18:48:14.635Z,76.40
2018-03-27T18:50:43.010Z,76.73
2018-03-27T18:53:11.401Z,76.81
2018-03-27T18:55:43.679Z,76.65
2018-03-27T18:58:12.120Z,76.62
2018-03-27T19:00:40.545Z,76.84
2018-03-27T19:03:11.776Z,76.50
2018-03-27T19:05:41.313Z,76.41
2018-03-27T19:08:10.673Z,76.70
2018-03-27T19:10:40.815Z,77.16
2018-03-27T19:13:09.256Z,77.44
2018-03-27T19:15:40.067Z,77.54
2018-03-27T19:18:08.584Z,77.58
2018-03-27T19:20:37.051Z,77.86
2018-03-27T19:23:06.364Z,78.14
2018-03-27T19:25:34.724Z,78.33
2018-03-27T19:28:03.906Z,78.30
2018-03-27T19:30:32.432Z,78.25
2018-03-27T19:33:02.570Z,78.35
2018-03-27T19:35:31.132Z,78.01
2018-03-27T19:37:59.534Z,78.05
2018-03-27T19:40:27.918Z,78.22
2018-03-27T19:42:57.066Z,78.30
2018-03-27T19:45:25.403Z,78.43
2018-03-27T19:47:53.838Z,78.45
2018-03-27T19:50:23.142Z,79.32
2018-03-27T19:52:52.656Z,79.13
2018-03-27T19:55:21.010Z,78.65
2018-03-27T19:57:50.127Z,78.52
2018-03-27T20:00:22.540Z,78.94
2018-03-27T20:02:52.650Z,79.58
2018-03-27T20:05:21.053Z,79.40
2018-03-27T20:07:49.564Z,79.08
2018-03-27T20:10:18.394Z,79.56
2018-03-27T20:12:46.755Z,79.17
2018-03-27T20:15:15.221Z,79.21
2018-03-27T20:17:43.838Z,78.99
2018-03-27T20:20:13.988Z,79.09
2018-03-27T20:22:42.511Z,79.78
2018-03-27T20:25:12.061Z,79.52
2018-03-27T20:27:40.750Z,79.24
2018-03-27T20:30:09.284Z,79.96
2018-03-27T20:32:39.353Z,80.05
2018-03-27T20:35:10.465Z,79.88
2018-03-27T20:37:39.594Z,80.14
2018-03-27T20:40:10.849Z,79.77
2018-03-27T20:42:40.022Z,79.95
2018-03-27T20:45:08.536Z,80.36
2018-03-27T20:47:39.087Z,80.09
2018-03-27T20:50:08.282Z,79.95
2018-03-27T20:52:38.917Z,80.18
2018-03-27T20:55:07.390Z,80.37
2018-03-27T20:57:38.586Z,80.45
2018-03-27T21:00:07.023Z,81.02
2018-03-27T21:02:36.584Z,81.50
2018-03-27T21:05:05.621Z,81.14
2018-03-27T21:07:35.752Z,81.06
2018-03-27T21:10:05.707Z,81.30
2018-03-27T21:12:34.973Z,81.50
2018-03-27T21:15:05.046Z,82.19
2018-03-27T21:17:33.547Z,82.54
2018-03-27T21:20:03.814Z,82.38
2018-03-27T21:22:33.837Z,82.80
2018-03-27T21:25:02.925Z,82.62
2018-03-27T21:27:32.671Z,82.97
2018-03-27T21:30:01.096Z,83.27
2018-03-27T21:32:29.393Z,83.81
2018-03-27T21:35:00.528Z,83.87
2018-03-27T21:37:30.679Z,83.59
2018-03-27T21:39:59.089Z,83.82
2018-03-27T21:42:27.476Z,83.88
2018-03-27T21:44:56.012Z,84.01
2018-03-27T21:47:24.504Z,83.69
2018-03-27T21:49:54.966Z,83.57
2018-03-27T21:52:25.807Z,83.24
2018-03-27T21:54:56.900Z,84.04
2018-03-27T21:57:25.323Z,84.31
2018-03-27T21:59:53.790Z,83.95
2018-03-27T22:02:23.089Z,83.71
2018-03-27T22:04:51.494Z,84.25
2018-03-27T22:07:22.436Z,84.19
2018-03-27T22:09:53.476Z,83.87
2018-03-27T22:12:23.609Z,83.26
2018-03-27T22:14:53.894Z,82.95
2018-03-27T22:17:26.852Z,82.36
2018-03-27T22:19:55.257Z,81.55
2018-03-27T22:22:23.907Z,81.38
2018-03-27T22:24:52.247Z,81.31
2018-03-27T22:27:20.536Z,80.71
2018-03-27T22:29:51.549Z,80.03
2018-03-27T22:32:21.552Z,79.98
2018-03-27T22:34:49.994Z,79.78
2018-03-27T22:37:20.019Z,79.47
2018-03-27T22:39:48.428Z,79.24
2018-03-27T22:42:18.538Z,78.79
2018-03-27T22:44:48.687Z,78.52
2018-03-27T22:47:17.052Z,78.35
2018-03-27T22:49:45.497Z,78.76
2018-03-27T22:52:13.903Z,78.50
2018-03-27T22:54:46.695Z,78.33
2018-03-27T22:57:16.979Z,78.17
2018-03-27T22:59:49.390Z,78.10
2018-03-27T23:02:20.487Z,77.64
2018-03-27T23:04:49.584Z,78.23
2018-03-27T23:07:20.780Z,78.04
2018-03-27T23:09:49.909Z,78.60
2018-03-27T23:12:20.015Z,79.77
2018-03-27T23:14:48.420Z,79.59
2018-03-27T23:17:16.807Z,79.94
2018-03-27T23:19:45.454Z,80.07
2018-03-27T23:22:25.580Z,80.43
2018-03-27T23:24:55.657Z,80.72
2018-03-27T23:27:26.791Z,81.09
2018-03-27T23:29:56.420Z,81.42
2018-03-27T23:32:24.954Z,81.93
2018-03-27T23:34:55.041Z,82.52
2018-03-27T23:37:27.266Z,82.55
2018-03-27T23:39:57.265Z,83.24
2018-03-27T23:42:25.717Z,84.07
2018-03-27T23:44:54.025Z,84.49
2018-03-27T23:47:22.403Z,85.17
2018-03-27T23:49:50.780Z,85.72
2018-03-27T23:52:19.087Z,85.97
2018-03-27T23:54:48.157Z,86.21
2018-03-27T23:57:16.495Z,86.29
2018-03-27T23:59:44.806Z,86.70
